createdAt,value
2023-05-20T00:01:26.464Z,99.90
2023-05-20T00:03:54.221Z,99.90
2023-05-20T00:06:22.048Z,99.90
2023-05-20T00:08:49.746Z,99.90
2023-05-20T00:11:17.331Z,99.90
2023-05-20T00:13:48.201Z,99.90
2023-05-20T00:16:18.898Z,99.90
2023-05-20T00:18:46.645Z,99.90
2023-05-20T00:21:14.267Z,99.90
2023-05-20T00:23:42.099Z,99.90
2023-05-20T00:26:09.752Z,99.90
2023-05-20T00:28:37.179Z,99.90
2023-05-20T00:31:05.016Z,99.90
2023-05-20T00:33:32.492Z,99.90
2023-05-20T00:36:00.155Z,99.90
2023-05-20T00:38:27.840Z,99.90
2023-05-20T00:40:56.864Z,99.90
2023-05-20T00:43:25.549Z,99.90
2023-05-20T00:45:57.151Z,99.90
2023-05-20T00:48:25.095Z,99.90
2023-05-20T00:50:53.008Z,99.90
2023-05-20T00:53:21.504Z,99.90
2023-05-20T00:55:49.095Z,99.90
2023-05-20T00:58:17.137Z,99.90
2023-05-20T01:00:44.710Z,99.90
2023-05-20T01:03:12.928Z,99.90
2023-05-20T01:05:42.383Z,99.90
2023-05-20T01:08:10.261Z,99.90
2023-05-20T01:10:42.280Z,99.90
2023-05-20T01:13:15.313Z,99.90
2023-05-20T01:15:48.529Z,99.90
2023-05-20T01:18:26.711Z,99.90
2023-05-20T01:20:56.213Z,99.90
2023-05-20T01:23:23.814Z,99.90
2023-05-20T01:25:51.282Z,99.90
2023-05-20T01:28:19.458Z,99.90
2023-05-20T01:30:55.554Z,99.90
2023-05-20T01:33:25.638Z,99.90
2023-05-20T01:35:54.014Z,99.90
2023-05-20T01:38:24.047Z,99.90
2023-05-20T01:40:52.682Z,99.90
2023-05-20T01:43:21.515Z,99.90
2023-05-20T01:45:49.186Z,99.90
2023-05-20T01:48:17.051Z,99.90
2023-05-20T01:50:47.102Z,99.90
2023-05-20T01:53:14.827Z,99.90
2023-05-20T01:55:42.672Z,99.90
2023-05-20T01:58:10.177Z,99.90
2023-05-20T02:00:38.032Z,99.90
2023-05-20T02:03:05.713Z,99.90
2023-05-20T02:05:33.521Z,99.90
2023-05-20T02:08:04.418Z,99.90
2023-05-20T02:10:31.950Z,99.90
2023-05-20T02:12:59.450Z,99.90
2023-05-20T02:15:27.274Z,99.90
2023-05-20T02:17:55.104Z,99.90
2023-05-20T02:20:27.182Z,99.90
2023-05-20T02:22:54.953Z,99.90
2023-05-20T02:25:22.421Z,99.90
2023-05-20T02:27:49.949Z,99.90
2023-05-20T02:30:17.494Z,99.90
2023-05-20T02:32:45.117Z,99.90
2023-05-20T02:35:12.901Z,99.90
2023-05-20T02:37:40.748Z,99.90
2023-05-20T02:40:09.525Z,99.90
2023-05-20T02:42:38.762Z,99.90
2023-05-20T02:45:07.508Z,99.90
2023-05-20T02:47:35.272Z,99.90
2023-05-20T02:50:03.283Z,99.90
2023-05-20T02:52:30.818Z,99.90
2023-05-20T02:54:58.855Z,99.90
2023-05-20T02:57:28.621Z,99.90
2023-05-20T02:59:59.179Z,99.90
2023-05-20T03:02:26.966Z,99.90
2023-05-20T03:04:54.969Z,99.90
2023-05-20T03:07:22.757Z,99.90
2023-05-20T03:09:50.179Z,99.90
2023-05-20T03:12:18.927Z,99.90
2023-05-20T03:14:46.413Z,99.90
2023-05-20T03:17:14.167Z,99.90
2023-05-20T03:19:44.037Z,99.90
2023-05-20T03:22:11.908Z,99.90
2023-05-20T03:24:39.461Z,99.90
2023-05-20T03:27:07.193Z,99.90
2023-05-20T03:29:36.393Z,99.90
2023-05-20T03:32:04.232Z,99.90
2023-05-20T03:34:32.088Z,99.90
2023-05-20T03:37:03.976Z,99.90
2023-05-20T03:39:34.389Z,99.90
2023-05-20T03:42:02.913Z,99.90
2023-05-20T03:44:30.423Z,99.90
2023-05-20T03:46:57.951Z,99.90
2023-05-20T03:49:25.611Z,99.90
2023-05-20T03:51:56.208Z,99.90
2023-05-20T03:54:23.777Z,99.90
2023-05-20T03:56:53.071Z,99.90
2023-05-20T03:59:22.448Z,99.90
2023-05-20T04:01:50.210Z,99.90
2023-05-20T04:04:17.827Z,99.90
2023-05-20T04:06:46.331Z,99.90
2023-05-20T04:09:15.000Z,99.90
2023-05-20T04:11:42.789Z,99.90
2023-05-20T04:14:11.357Z,99.90
2023-05-20T04:16:39.503Z,99.90
2023-05-20T04:19:07.458Z,99.90
2023-05-20T04:21:35.162Z,99.90
2023-05-20T04:24:05.824Z,99.90
2023-05-20T04:26:33.999Z,99.90
2023-05-20T04:29:04.421Z,99.90
2023-05-20T04:31:33.926Z,99.90
2023-05-20T04:34:02.821Z,99.90
2023-05-20T04:36:31.212Z,99.90
2023-05-20T04:38:59.504Z,99.90
2023-05-20T04:41:27.434Z,99.90
2023-05-20T04:43:59.951Z,99.90
2023-05-20T04:46:27.645Z,99.90
2023-05-20T04:48:55.676Z,99.90
2023-05-20T04:51:23.433Z,99.90
2023-05-20T04:53:53.901Z,99.90
2023-05-20T04:56:21.648Z,99.90
2023-05-20T04:58:49.132Z,99.90
2023-05-20T05:01:16.941Z,99.90
2023-05-20T05:03:44.642Z,99.90
2023-05-20T05:06:12.210Z,99.90
2023-05-20T05:08:39.779Z,99.90
2023-05-20T05:11:07.597Z,99.90
2023-05-20T05:13:35.146Z,99.90
2023-05-20T05:16:03.738Z,99.90
2023-05-20T05:18:32.912Z,99.90
2023-05-20T05:21:05.055Z,99.90
2023-05-20T05:23:36.090Z,99.90
2023-05-20T05:26:04.067Z,99.90
2023-05-20T05:28:31.578Z,99.90
2023-05-20T05:30:59.715Z,99.90
2023-05-20T05:33:27.352Z,99.90
2023-05-20T05:35:59.329Z,99.90
2023-05-20T05:38:27.568Z,99.90
2023-05-20T05:40:58.620Z,99.90
2023-05-20T05:43:26.143Z,99.90
2023-05-20T05:45:54.346Z,99.90
2023-05-20T05:48:25.873Z,99.90
2023-05-20T05:50:53.459Z,99.90
2023-05-20T05:53:22.226Z,99.90
2023-05-20T05:55:50.286Z,99.90
2023-05-20T05:58:18.718Z,99.90
2023-05-20T06:00:46.799Z,99.90
2023-05-20T06:03:14.844Z,99.90
2023-05-20T06:05:54.491Z,99.90
2023-05-20T06:08:22.055Z,99.90
2023-05-20T06:10:50.344Z,99.90
2023-05-20T06:13:18.646Z,99.90
2023-05-20T06:15:46.517Z,99.90
2023-05-20T06:18:14.056Z,99.90
2023-05-20T06:20:41.724Z,99.90
2023-05-20T06:23:09.410Z,99.90
2023-05-20T06:26:01.231Z,99.90
2023-05-20T06:28:30.798Z,99.90
2023-05-20T06:30:58.537Z,99.90
2023-05-20T06:33:28.705Z,99.90
2023-05-20T06:36:02.034Z,99.90
2023-05-20T06:38:32.037Z,99.90
2023-05-20T06:40:59.589Z,99.90
2023-05-20T06:43:27.564Z,99.90
2023-05-20T06:46:04.930Z,99.90
2023-05-20T06:48:42.541Z,99.90
2023-05-20T06:51:13.281Z,99.90
2023-05-20T06:53:41.914Z,99.90
2023-05-20T06:56:09.360Z,99.90
2023-05-20T06:58:37.626Z,99.90
2023-05-20T07:01:05.748Z,99.90
2023-05-20T07:03:33.784Z,99.90
2023-05-20T07:06:01.359Z,99.90
2023-05-20T07:08:29.258Z,99.90
2023-05-20T07:10:57.349Z,99.90
2023-05-20T07:13:26.440Z,99.90
2023-05-20T07:15:54.117Z,99.90
2023-05-20T07:18:21.967Z,99.90
2023-05-20T07:20:53.775Z,99.90
2023-05-20T07:23:47.502Z,99.90
2023-05-20T07:26:16.694Z,99.90
2023-05-20T07:28:45.766Z,99.90
2023-05-20T07:31:13.432Z,99.90
2023-05-20T07:33:45.342Z,99.90
2023-05-20T07:36:13.222Z,99.90
2023-05-20T07:38:53.073Z,99.90
2023-05-20T07:41:30.634Z,99.90
2023-05-20T07:43:58.515Z,99.90
2023-05-20T07:46:26.545Z,99.90
2023-05-20T07:48:54.088Z,99.90
2023-05-20T07:51:21.766Z,99.90
2023-05-20T07:53:49.810Z,99.90
2023-05-20T07:56:17.948Z,98.20
2023-05-20T07:58:53.825Z,97.70
2023-05-20T08:01:22.292Z,99.20
2023-05-20T08:03:50.838Z,99.60
2023-05-20T08:06:22.000Z,99.70
2023-05-20T08:08:50.218Z,99.90
2023-05-20T08:11:24.304Z,99.90
2023-05-20T08:13:53.047Z,99.90
2023-05-20T08:16:25.356Z,99.90
2023-05-20T08:18:53.433Z,99.20
2023-05-20T08:21:25.158Z,97.10
2023-05-20T08:23:52.703Z,97.80
2023-05-20T08:26:20.311Z,99.90
2023-05-20T08:28:48.704Z,99.90
2023-05-20T08:31:20.366Z,99.90
2023-05-20T08:33:47.975Z,99.90
2023-05-20T08:36:16.469Z,99.90
2023-05-20T08:38:44.670Z,97.80
2023-05-20T08:41:12.882Z,98.90
2023-05-20T08:43:44.775Z,96.60
2023-05-20T08:46:12.798Z,93.90
2023-05-20T08:48:40.525Z,92.50
2023-05-20T08:51:11.330Z,92.70
2023-05-20T08:53:42.431Z,93.20
2023-05-20T08:56:11.705Z,92.90
2023-05-20T08:58:39.303Z,93.30
2023-05-20T09:01:07.998Z,95.90
2023-05-20T09:03:35.583Z,96.10
2023-05-20T09:06:09.172Z,97.10
2023-05-20T09:08:37.440Z,96.00
2023-05-20T09:11:05.114Z,93.80
2023-05-20T09:13:35.391Z,93.80
2023-05-20T09:16:03.587Z,94.50
2023-05-20T09:18:31.651Z,94.00
2023-05-20T09:21:06.902Z,94.90
2023-05-20T09:23:38.369Z,94.00
2023-05-20T09:26:06.335Z,94.40
2023-05-20T09:28:36.159Z,93.60
2023-05-20T09:31:05.722Z,94.00
2023-05-20T09:33:35.747Z,95.10
2023-05-20T09:36:10.279Z,93.80
2023-05-20T09:38:39.985Z,93.90
2023-05-20T09:41:11.682Z,95.80
2023-05-20T09:43:40.943Z,95.00
2023-05-20T09:46:10.095Z,95.60
2023-05-20T09:48:37.951Z,95.60
2023-05-20T09:51:07.331Z,97.00
2023-05-20T09:53:36.311Z,96.90
2023-05-20T09:56:04.389Z,96.00
2023-05-20T09:58:35.850Z,96.80
2023-05-20T10:01:03.992Z,98.30
2023-05-20T10:03:33.602Z,97.20
2023-05-20T10:06:46.480Z,97.60
2023-05-20T10:09:42.915Z,94.60
2023-05-20T10:12:48.168Z,96.10
2023-05-20T10:15:38.783Z,96.50
2023-05-20T10:18:35.129Z,96.80
2023-05-20T10:21:02.731Z,95.10
2023-05-20T10:23:31.354Z,96.00
2023-05-20T10:25:59.201Z,97.20
2023-05-20T10:28:33.084Z,97.10
2023-05-20T10:31:01.233Z,94.90
2023-05-20T10:33:30.013Z,93.60
2023-05-20T10:36:01.221Z,94.70
2023-05-20T10:38:28.795Z,97.00
2023-05-20T10:40:57.512Z,95.20
2023-05-20T10:43:29.046Z,95.60
2023-05-20T10:45:58.396Z,94.20
2023-05-20T10:48:34.286Z,93.90
2023-05-20T10:51:06.616Z,93.60
2023-05-20T10:53:41.635Z,93.40
2023-05-20T10:56:19.751Z,94.20
2023-05-20T10:58:48.002Z,95.70
2023-05-20T11:01:20.104Z,94.60
2023-05-20T11:03:49.386Z,96.00
2023-05-20T11:06:26.157Z,95.20
2023-05-20T11:08:53.783Z,95.20
2023-05-20T11:11:26.662Z,95.30
2023-05-20T11:13:57.470Z,93.60
2023-05-20T11:16:25.535Z,93.40
2023-05-20T11:18:53.311Z,93.90
2023-05-20T11:21:20.971Z,93.80
2023-05-20T11:23:52.114Z,95.40
2023-05-20T11:26:21.427Z,93.50
2023-05-20T11:28:52.020Z,94.40
2023-05-20T11:31:19.601Z,92.10
2023-05-20T11:33:47.140Z,94.30
2023-05-20T11:36:27.450Z,94.70
2023-05-20T11:38:58.773Z,92.60
2023-05-20T11:41:28.132Z,94.50
2023-05-20T11:43:58.539Z,92.90
2023-05-20T11:46:26.437Z,94.40
2023-05-20T11:48:55.203Z,94.40
2023-05-20T11:51:29.569Z,92.80
2023-05-20T11:54:04.157Z,93.50
2023-05-20T11:56:37.255Z,93.50
2023-05-20T11:59:09.791Z,94.50
2023-05-20T12:01:44.146Z,94.70
2023-05-20T12:04:13.890Z,94.20
2023-05-20T12:06:43.338Z,93.00
2023-05-20T12:09:11.562Z,94.00
2023-05-20T12:11:41.680Z,93.10
2023-05-20T12:14:09.806Z,91.60
2023-05-20T12:16:38.174Z,93.10
2023-05-20T12:19:05.990Z,93.40
2023-05-20T12:21:33.556Z,92.70
2023-05-20T12:24:01.276Z,92.90
2023-05-20T12:26:29.764Z,92.80
2023-05-20T12:28:57.722Z,92.40
2023-05-20T12:31:26.126Z,92.50
2023-05-20T12:33:53.633Z,92.10
2023-05-20T12:36:21.586Z,94.20
2023-05-20T12:38:49.277Z,93.30
2023-05-20T12:41:18.649Z,91.70
2023-05-20T12:43:46.101Z,90.80
2023-05-20T12:46:13.730Z,91.30
2023-05-20T12:48:42.547Z,91.20
2023-05-20T12:51:10.258Z,90.30
2023-05-20T12:53:37.747Z,90.40
2023-05-20T12:56:06.194Z,91.30
2023-05-20T12:58:34.822Z,91.90
2023-05-20T13:01:05.540Z,91.10
2023-05-20T13:03:33.294Z,90.70
2023-05-20T13:06:00.962Z,91.40
2023-05-20T13:08:28.863Z,91.30
2023-05-20T13:10:56.498Z,92.90
2023-05-20T13:13:24.584Z,91.50
2023-05-20T13:15:55.123Z,90.80
2023-05-20T13:18:22.724Z,90.50
2023-05-20T13:20:50.608Z,90.90
2023-05-20T13:23:18.195Z,90.20
2023-05-20T13:25:45.621Z,92.00
2023-05-20T13:28:16.715Z,91.60
2023-05-20T13:30:44.544Z,91.90
2023-05-20T13:33:12.160Z,92.00
2023-05-20T13:35:39.447Z,93.00
2023-05-20T13:38:06.738Z,93.00
2023-05-20T13:40:34.402Z,93.70
2023-05-20T13:43:01.930Z,90.60
2023-05-20T13:45:29.799Z,91.60
2023-05-20T13:47:57.665Z,91.90
2023-05-20T13:50:25.773Z,92.70
2023-05-20T13:52:53.121Z,92.40
2023-05-20T13:55:21.794Z,93.40
2023-05-20T13:57:50.337Z,93.70
2023-05-20T14:00:17.933Z,93.30
2023-05-20T14:02:48.143Z,93.90
2023-05-20T14:05:15.472Z,93.50
2023-05-20T14:07:42.699Z,93.70
2023-05-20T14:10:11.540Z,94.00
2023-05-20T14:12:39.101Z,93.10
2023-05-20T14:15:06.998Z,92.80
2023-05-20T14:17:34.293Z,93.80
2023-05-20T14:20:01.754Z,92.80
2023-05-20T14:22:29.046Z,92.90
2023-05-20T14:24:56.811Z,93.10
2023-05-20T14:27:24.329Z,93.50
2023-05-20T14:29:51.675Z,93.40
2023-05-20T14:32:19.117Z,93.10
2023-05-20T14:34:46.691Z,93.60
2023-05-20T14:37:15.514Z,94.10
2023-05-20T14:39:42.946Z,93.30
2023-05-20T14:42:10.302Z,93.90
2023-05-20T14:44:38.045Z,94.00
2023-05-20T14:47:07.965Z,93.40
2023-05-20T14:49:36.857Z,93.80
2023-05-20T14:52:04.546Z,92.90
2023-05-20T14:54:31.948Z,93.30
2023-05-20T14:57:00.061Z,93.00
2023-05-20T14:59:27.662Z,93.10
2023-05-20T15:01:55.120Z,92.80
2023-05-20T15:04:22.792Z,92.60
2023-05-20T15:06:50.551Z,92.90
2023-05-20T15:09:17.974Z,92.70
2023-05-20T15:11:45.581Z,93.20
2023-05-20T15:14:13.075Z,93.80
2023-05-20T15:16:40.526Z,94.00
2023-05-20T15:19:08.011Z,93.10
2023-05-20T15:21:36.046Z,93.90
2023-05-20T15:24:03.510Z,92.60
2023-05-20T15:26:31.881Z,93.90
2023-05-20T15:28:59.418Z,93.30
2023-05-20T15:31:27.001Z,93.30
2023-05-20T15:33:55.845Z,94.00
2023-05-20T15:36:23.339Z,93.50
2023-05-20T15:38:50.806Z,93.80
2023-05-20T15:41:18.453Z,93.70
2023-05-20T15:43:48.819Z,94.30
2023-05-20T15:46:17.886Z,94.80
2023-05-20T15:48:45.823Z,94.40
2023-05-20T15:51:15.802Z,94.60
2023-05-20T15:53:43.461Z,93.90
2023-05-20T15:56:14.036Z,93.70
2023-05-20T15:58:41.588Z,93.50
2023-05-20T16:01:09.135Z,93.60
2023-05-20T16:03:36.522Z,94.30
2023-05-20T16:06:04.179Z,93.90
2023-05-20T16:08:31.556Z,93.90
2023-05-20T16:10:59.122Z,93.50
2023-05-20T16:13:26.951Z,93.80
2023-05-20T16:15:57.857Z,93.60
2023-05-20T16:18:28.535Z,93.30
2023-05-20T16:20:59.071Z,93.60
2023-05-20T16:23:27.104Z,93.70
2023-05-20T16:25:54.550Z,93.20
2023-05-20T16:28:24.697Z,93.60
2023-05-20T16:30:55.295Z,93.20
2023-05-20T16:33:22.767Z,93.10
2023-05-20T16:35:51.661Z,93.60
2023-05-20T16:38:19.438Z,93.10
2023-05-20T16:40:51.339Z,93.10
2023-05-20T16:43:18.825Z,92.70
2023-05-20T16:45:51.672Z,93.30
2023-05-20T16:48:19.034Z,92.70
2023-05-20T16:50:46.992Z,93.00
2023-05-20T16:53:17.310Z,92.70
2023-05-20T16:55:44.597Z,93.00
2023-05-20T16:58:12.987Z,93.80
2023-05-20T17:00:41.269Z,94.30
2023-05-20T17:03:09.823Z,94.20
2023-05-20T17:05:37.242Z,94.50
2023-05-20T17:08:05.729Z,94.90
2023-05-20T17:10:33.491Z,95.00
2023-05-20T17:13:01.959Z,95.20
2023-05-20T17:15:29.856Z,95.20
2023-05-20T17:17:57.939Z,94.50
2023-05-20T17:20:25.746Z,94.70
2023-05-20T17:22:53.800Z,94.60
2023-05-20T17:25:23.876Z,94.80
2023-05-20T17:27:51.737Z,95.00
2023-05-20T17:30:19.496Z,94.80
2023-05-20T17:32:47.142Z,95.20
2023-05-20T17:35:14.869Z,95.30
2023-05-20T17:37:42.678Z,94.70
2023-05-20T17:40:11.400Z,94.80
2023-05-20T17:42:39.702Z,95.20
2023-05-20T17:45:08.126Z,95.10
2023-05-20T17:47:36.514Z,95.20
2023-05-20T17:50:06.038Z,95.20
2023-05-20T17:52:34.499Z,95.60
2023-05-20T17:55:02.425Z,95.40
2023-05-20T17:57:29.936Z,95.80
2023-05-20T17:59:57.874Z,96.00
2023-05-20T18:02:25.721Z,95.90
2023-05-20T18:04:53.916Z,96.30
2023-05-20T18:07:21.733Z,96.50
2023-05-20T18:09:49.629Z,96.80
2023-05-20T18:12:18.349Z,97.10
2023-05-20T18:14:46.271Z,97.60
2023-05-20T18:17:13.654Z,98.00
2023-05-20T18:19:41.033Z,98.50
2023-05-20T18:22:09.968Z,98.80
2023-05-20T18:24:37.579Z,99.30
2023-05-20T18:27:05.238Z,99.60
2023-05-20T18:29:32.806Z,99.70
2023-05-20T18:32:00.290Z,99.50
2023-05-20T18:34:28.407Z,99.90
2023-05-20T18:36:56.245Z,99.90
2023-05-20T18:39:23.748Z,99.90
2023-05-20T18:41:51.567Z,99.90
2023-05-20T18:44:19.632Z,99.90
2023-05-20T18:46:49.726Z,99.90
2023-05-20T18:49:17.171Z,99.90
2023-05-20T18:51:44.801Z,99.90
2023-05-20T18:54:12.395Z,99.90
2023-05-20T18:56:39.800Z,99.90
2023-05-20T18:59:07.359Z,99.90
2023-05-20T19:01:36.671Z,99.90
2023-05-20T19:04:04.476Z,99.90
2023-05-20T19:06:35.347Z,99.90
2023-05-20T19:09:03.605Z,99.90
2023-05-20T19:11:31.261Z,99.90
2023-05-20T19:13:59.088Z,99.90
2023-05-20T19:16:26.978Z,99.90
2023-05-20T19:18:54.515Z,99.90
2023-05-20T19:21:21.940Z,99.90
2023-05-20T19:23:50.116Z,99.90
2023-05-20T19:26:20.193Z,99.90
2023-05-20T19:28:47.547Z,99.90
2023-05-20T19:31:21.502Z,99.90
2023-05-20T19:33:51.641Z,99.90
2023-05-20T19:36:19.266Z,99.90
2023-05-20T19:38:52.169Z,99.90
2023-05-20T19:41:19.699Z,99.90
2023-05-20T19:43:47.116Z,99.90
2023-05-20T19:46:15.445Z,99.90
2023-05-20T19:48:42.864Z,99.90
2023-05-20T19:51:10.866Z,99.90
2023-05-20T19:53:38.745Z,99.90
2023-05-20T19:56:07.922Z,99.90
2023-05-20T19:58:35.395Z,99.90
2023-05-20T20:01:04.620Z,99.90
2023-05-20T20:03:34.163Z,99.90
2023-05-20T20:06:01.647Z,99.90
2023-05-20T20:08:29.103Z,99.90
2023-05-20T20:10:56.500Z,99.90
2023-05-20T20:13:23.846Z,99.90
2023-05-20T20:15:54.212Z,99.90
2023-05-20T20:18:24.684Z,99.90
2023-05-20T20:20:52.087Z,99.90
2023-05-20T20:23:22.230Z,99.90
2023-05-20T20:25:50.693Z,99.90
2023-05-20T20:28:18.576Z,99.90
2023-05-20T20:30:45.955Z,99.90
2023-05-20T20:33:13.444Z,99.90
2023-05-20T20:35:41.452Z,99.90
2023-05-20T20:38:09.966Z,99.90
2023-05-20T20:40:45.224Z,99.90
2023-05-20T20:43:21.510Z,99.90
2023-05-20T20:45:51.046Z,99.90
2023-05-20T20:48:19.066Z,99.90
2023-05-20T20:50:52.318Z,99.90
2023-05-20T20:53:19.851Z,99.90
2023-05-20T20:55:47.332Z,99.90
2023-05-20T20:58:15.722Z,99.90
2023-05-20T21:00:45.205Z,99.90
2023-05-20T21:03:15.112Z,99.90
2023-05-20T21:05:44.842Z,99.90
2023-05-20T21:08:15.900Z,99.90
2023-05-20T21:10:43.468Z,99.90
2023-05-20T21:13:11.106Z,99.90
2023-05-20T21:15:38.592Z,99.90
2023-05-20T21:18:08.635Z,99.90
2023-05-20T21:20:47.872Z,99.90
2023-05-20T21:23:15.580Z,99.90
2023-05-20T21:25:43.308Z,99.90
2023-05-20T21:28:11.082Z,99.90
2023-05-20T21:30:38.684Z,99.90
2023-05-20T21:33:06.168Z,99.90
2023-05-20T21:35:33.779Z,99.90
2023-05-20T21:38:03.626Z,99.90
2023-05-20T21:40:31.009Z,99.90
2023-05-20T21:42:58.414Z,99.90
2023-05-20T21:45:25.934Z,99.90
2023-05-20T21:47:56.460Z,99.90
2023-05-20T21:50:24.035Z,99.90
2023-05-20T21:52:51.490Z,99.90
2023-05-20T21:55:25.721Z,99.90
2023-05-20T21:57:53.113Z,99.90
2023-05-20T22:00:20.773Z,99.90
2023-05-20T22:02:51.027Z,99.90
2023-05-20T22:05:18.519Z,99.90
2023-05-20T22:07:45.981Z,99.90
2023-05-20T22:10:17.679Z,99.90
2023-05-20T22:12:45.163Z,99.90
2023-05-20T22:15:12.522Z,99.90
2023-05-20T22:17:40.334Z,99.90
2023-05-20T22:20:08.686Z,99.90
2023-05-20T22:22:36.274Z,99.90
2023-05-20T22:25:03.812Z,99.90
2023-05-20T22:27:31.857Z,99.90
2023-05-20T22:29:59.481Z,99.90
2023-05-20T22:32:26.873Z,99.90
2023-05-20T22:34:58.540Z,99.90
2023-05-20T22:37:26.832Z,99.90
2023-05-20T22:39:57.730Z,99.90
2023-05-20T22:42:25.226Z,99.90
2023-05-20T22:44:52.645Z,99.90
2023-05-20T22:47:20.010Z,99.90
2023-05-20T22:49:47.827Z,99.90
2023-05-20T22:52:15.310Z,99.90
2023-05-20T22:54:43.299Z,99.90
2023-05-20T22:57:13.362Z,99.90
2023-05-20T22:59:40.992Z,99.90
2023-05-20T23:02:08.356Z,99.90
2023-05-20T23:04:35.796Z,99.90
2023-05-20T23:07:03.201Z,99.90
2023-05-20T23:09:30.691Z,99.90
2023-05-20T23:11:58.045Z,99.90
2023-05-20T23:14:25.365Z,99.90
2023-05-20T23:16:52.651Z,99.90
2023-05-20T23:19:20.305Z,99.90
2023-05-20T23:21:47.631Z,99.90
2023-05-20T23:24:16.849Z,99.90
2023-05-20T23:26:44.406Z,99.90
2023-05-20T23:29:14.739Z,99.90
2023-05-20T23:31:44.348Z,99.90
2023-05-20T23:34:12.041Z,99.90
2023-05-20T23:36:42.160Z,99.90
2023-05-20T23:39:09.581Z,99.90
2023-05-20T23:41:37.142Z,99.90
2023-05-20T23:44:04.529Z,99.90
2023-05-20T23:46:32.056Z,99.90
2023-05-20T23:49:02.133Z,99.90
2023-05-20T23:51:29.884Z,99.90
2023-05-20T23:53:57.495Z,99.90
2023-05-20T23:56:24.875Z,99.90
2023-05-20T23:58:52.289Z,99.90
